Time;durP1;ratioP1;P1;durP2;ratioP2;P2;SDS_P1;SDS_P2;PMS_P1;PMS_P2;Temp;Humidity;BMP_temperature;BMP_pressure;BME280_temperature;BME280_humidity;BME280_pressure;Samples;Min_cycle;Max_cycle;Signal;HPM_P1;HPM_P2
2023/10/08 00:00:46;;;;;;;;;;;;;;;20.27;50.13;97875.28;4161262;28;5737;-60
2023/10/08 00:02:50;;;;;;;;;;;;;;;20.26;50.14;97873.59;4169180;28;5928;-60
2023/10/08 00:04:54;;;;;;;;;;;;;;;20.25;50.14;97874.66;4168890;28;6519;-59
2023/10/08 00:06:58;;;;;;;;;;;;;;;20.24;50.07;97873.00;4170756;28;5856;-59
2023/10/08 00:09:06;;;;;;;;;;;;;;;20.23;49.57;97871.38;4169488;28;5757;-59
2023/10/08 00:11:11;;;;;;;;;;;;;;;20.24;49.29;97869.50;4168902;28;5816;-59
2023/10/08 00:13:16;;;;;;;;;;;;;;;20.23;49.27;97876.75;4169212;28;5745;-59
2023/10/08 00:15:19;;;;;;;;;;;;;;;20.23;49.23;97874.06;4168298;28;5836;-59
2023/10/08 00:17:22;;;;;;;;;;;;;;;20.22;49.18;97872.44;4173820;28;6526;-60
2023/10/08 00:19:25;;;;;;;;;;;;;;;20.20;48.74;97874.53;4170116;28;5761;-59
2023/10/08 00:21:31;;;;;;;;;;;;;;;20.18;48.37;97865.88;4169112;28;5829;-60
2023/10/08 00:23:35;;;;;;;;;;;;;;;20.18;48.11;97873.13;4169023;28;5960;-60
2023/10/08 00:25:40;;;;;;;;;;;;;;;20.17;48.10;97866.13;4167811;28;5655;-59
2023/10/08 00:27:45;;;;;;;;;;;;;;;20.19;48.00;97869.41;4191890;28;6631;-60
2023/10/08 00:29:48;;;;;;;;;;;;;;;20.18;47.82;97865.88;4194008;28;5698;-59
2023/10/08 00:31:50;;;;;;;;;;;;;;;20.17;47.55;97864.25;4193589;28;5760;-59
2023/10/08 00:33:54;;;;;;;;;;;;;;;20.17;47.40;97864.25;4201643;28;5624;-59
2023/10/08 00:35:57;;;;;;;;;;;;;;;20.17;47.20;97874.19;4199612;28;6501;-59
2023/10/08 00:38:00;;;;;;;;;;;;;;;20.18;47.01;97865.06;4195627;28;5632;-59
2023/10/08 00:40:12;;;;;;;;;;;;;;;20.18;46.74;97868.56;4212777;28;5715;-59
2023/10/08 00:42:15;;;;;;;;;;;;;;;20.18;46.97;97859.72;4197930;28;5692;-59
2023/10/08 00:44:22;;;;;;;;;;;;;;;20.17;46.93;97866.94;4201671;28;5690;-59
2023/10/08 00:46:30;;;;;;;;;;;;;;;20.17;46.87;97864.25;4201916;28;5691;-59
2023/10/08 00:48:36;;;;;;;;;;;;;;;20.16;46.59;97857.25;4201546;28;5782;-60
2023/10/08 00:50:43;;;;;;;;;;;;;;;20.16;46.36;97856.41;4193180;28;6400;-59
2023/10/08 00:52:57;;;;;;;;;;;;;;;20.15;46.20;97854.78;4194513;28;6432;-60
2023/10/08 00:55:21;;;;;;;;;;;;;;;20.15;46.21;97852.09;4201823;28;6393;-59
2023/10/08 00:57:26;;;;;;;;;;;;;;;20.14;45.98;97848.59;4196288;28;6406;-60
2023/10/08 00:59:33;;;;;;;;;;;;;;;20.14;46.04;97847.75;4199133;28;5690;-60
2023/10/08 01:01:38;;;;;;;;;;;;;;;20.14;46.00;97845.91;4194399;28;5776;-59
2023/10/08 01:03:44;;;;;;;;;;;;;;;20.12;45.89;97842.63;4200728;28;5924;-60
2023/10/08 01:05:48;;;;;;;;;;;;;;;20.12;45.82;97845.31;4192210;28;5727;-60
2023/10/08 01:07:53;;;;;;;;;;;;;;;20.12;45.86;97844.50;4200363;28;5628;-60
2023/10/08 01:09:59;;;;;;;;;;;;;;;20.12;45.84;97839.94;4197217;28;6321;-59
2023/10/08 01:12:12;;;;;;;;;;;;;;;20.12;45.53;97845.31;4198316;28;5635;-60
2023/10/08 01:14:15;;;;;;;;;;;;;;;20.10;45.56;97841.22;4200188;28;5655;-60
2023/10/08 01:16:20;;;;;;;;;;;;;;;20.12;45.59;97848.00;4191266;28;5824;-59
2023/10/08 01:18:31;;;;;;;;;;;;;;;20.12;45.50;97839.94;4184178;28;5655;-60
2023/10/08 01:20:33;;;;;;;;;;;;;;;20.10;45.45;97831.31;4196008;28;5663;-59
2023/10/08 01:22:40;;;;;;;;;;;;;;;20.12;45.38;97839.13;4196555;28;5629;-59
2023/10/08 01:24:43;;;;;;;;;;;;;;;20.12;45.44;97833.75;4200444;28;5624;-59
2023/10/08 01:26:46;;;;;;;;;;;;;;;20.11;45.24;97838.31;4199310;28;6525;-60
2023/10/08 01:28:49;;;;;;;;;;;;;;;20.10;45.36;97836.69;4191397;28;5719;-60
2023/10/08 01:30:54;;;;;;;;;;;;;;;20.10;45.01;97836.69;4195437;28;5648;-60
2023/10/08 01:32:57;;;;;;;;;;;;;;;20.10;45.43;97839.34;4195419;28;6348;-60
2023/10/08 01:35:03;;;;;;;;;;;;;;;20.09;45.34;97835.03;4197448;28;5699;-60
2023/10/08 01:37:08;;;;;;;;;;;;;;;20.10;44.91;97841.22;4197804;28;5919;-60
2023/10/08 01:39:15;;;;;;;;;;;;;;;20.10;45.13;97839.34;4197388;28;5636;-60
2023/10/08 01:41:19;;;;;;;;;;;;;;;20.10;44.89;97838.53;4196198;28;5711;-60
2023/10/08 01:43:27;;;;;;;;;;;;;;;20.10;44.80;97834.00;4198447;28;5782;-60
2023/10/08 01:45:31;;;;;;;;;;;;;;;20.11;44.75;97832.94;4203337;28;6444;-60
2023/10/08 01:47:35;;;;;;;;;;;;;;;20.10;45.13;97831.31;4199285;28;5795;-60
2023/10/08 01:49:39;;;;;;;;;;;;;;;20.11;44.74;97838.31;4174306;28;5656;-60
2023/10/08 01:51:46;;;;;;;;;;;;;;;20.12;44.91;97839.94;4191202;28;5745;-60
2023/10/08 01:53:50;;;;;;;;;;;;;;;20.13;44.68;97835.38;4191403;28;5703;-60
2023/10/08 01:55:55;;;;;;;;;;;;;;;20.14;44.71;97834.34;4197744;28;6353;-60
2023/10/08 01:57:58;;;;;;;;;;;;;;;20.15;44.81;97830.59;4201027;28;5735;-61
2023/10/08 02:00:01;;;;;;;;;;;;;;;20.15;44.59;97828.75;4197608;28;5742;-60
2023/10/08 02:02:05;;;;;;;;;;;;;;;20.16;44.66;97824.19;4181362;28;5773;-60
2023/10/08 02:04:09;;;;;;;;;;;;;;;20.16;44.78;97827.72;4183718;28;5717;-60
2023/10/08 02:06:12;;;;;;;;;;;;;;;20.16;44.49;97822.34;4211609;28;5625;-58
2023/10/08 02:08:17;;;;;;;;;;;;;;;20.17;44.57;97820.50;4200117;28;5723;-60
2023/10/08 02:10:22;;;;;;;;;;;;;;;20.17;44.70;97826.66;4196865;28;5639;-60
2023/10/08 02:12:26;;;;;;;;;;;;;;;20.17;44.63;97826.66;4198171;28;5635;-58
2023/10/08 02:14:31;;;;;;;;;;;;;;;20.17;44.76;97834.72;4198440;28;5628;-59
2023/10/08 02:16:33;;;;;;;;;;;;;;;20.17;44.53;97839.28;4211534;28;5711;-58
2023/10/08 02:18:36;;;;;;;;;;;;;;;20.17;44.48;97831.22;4207508;28;5613;-59
2023/10/08 02:20:41;;;;;;;;;;;;;;;20.16;44.50;97834.94;4205960;28;5872;-59
2023/10/08 02:22:45;;;;;;;;;;;;;;;20.12;44.35;97834.56;4200758;28;5751;-59
2023/10/08 02:24:50;;;;;;;;;;;;;;;20.12;44.60;97833.75;4200316;28;5764;-59
2023/10/08 02:26:54;;;;;;;;;;;;;;;20.09;44.43;97828.84;4200368;28;6024;-60
2023/10/08 02:28:59;;;;;;;;;;;;;;;20.05;44.33;97833.88;4190394;28;5701;-60
2023/10/08 02:31:03;;;;;;;;;;;;;;;20.06;44.33;97836.31;4194414;28;6385;-60
2023/10/08 02:33:13;;;;;;;;;;;;;;;20.05;44.29;97833.88;4203350;28;5628;-60
2023/10/08 02:35:18;;;;;;;;;;;;;;;20.06;43.99;97840.88;4219205;28;5624;-60
2023/10/08 02:37:21;;;;;;;;;;;;;;;20.05;44.05;97831.19;4220534;28;5641;-60
2023/10/08 02:39:26;;;;;;;;;;;;;;;20.05;44.13;97839.25;4220567;28;5707;-59
2023/10/08 02:41:29;;;;;;;;;;;;;;;20.04;44.32;97837.56;4214180;28;5827;-60
2023/10/08 02:43:33;;;;;;;;;;;;;;;20.04;44.00;97835.72;4188860;28;5728;-59
2023/10/08 02:45:39;;;;;;;;;;;;;;;20.04;43.94;97833.03;4202717;28;5869;-59
2023/10/08 02:47:44;;;;;;;;;;;;;;;20.05;44.05;97836.56;4187476;28;5705;-59
2023/10/08 02:49:48;;;;;;;;;;;;;;;20.06;44.02;97835.50;4204447;28;5657;-59
2023/10/08 02:51:53;;;;;;;;;;;;;;;20.06;44.08;97830.13;4209810;28;5628;-60
2023/10/08 02:53:56;;;;;;;;;;;;;;;20.08;44.08;97833.41;4203631;28;5825;-60
2023/10/08 02:55:59;;;;;;;;;;;;;;;20.08;44.08;97827.22;4203605;28;5695;-60
2023/10/08 02:58:03;;;;;;;;;;;;;;;20.09;44.23;97835.03;4195210;28;5788;-59
2023/10/08 03:00:12;;;;;;;;;;;;;;;20.09;44.16;97829.66;4195203;28;5636;-59
2023/10/08 03:02:19;;;;;;;;;;;;;;;20.09;44.28;97832.34;4207635;28;5852;-59
2023/10/08 03:04:23;;;;;;;;;;;;;;;20.09;44.20;97832.34;4186730;28;5804;-60
2023/10/08 03:06:27;;;;;;;;;;;;;;;20.09;44.23;97828.84;4201247;28;5640;-60
2023/10/08 03:08:31;;;;;;;;;;;;;;;20.09;44.10;97835.03;4203154;28;5756;-59
2023/10/08 03:10:34;;;;;;;;;;;;;;;20.08;44.25;97830.72;4204568;28;5863;-59
2023/10/08 03:12:38;;;;;;;;;;;;;;;20.08;44.57;97828.03;4200849;28;5613;-59
2023/10/08 03:14:49;;;;;;;;;;;;;;;20.08;44.66;97830.72;4203541;28;5639;-59
2023/10/08 03:16:58;;;;;;;;;;;;;;;20.09;44.66;97834.22;4194502;28;5831;-59
2023/10/08 03:19:05;;;;;;;;;;;;;;;20.09;44.66;97835.03;4194743;28;5628;-60
2023/10/08 03:21:20;;;;;;;;;;;;;;;20.10;44.80;97828.63;4201108;28;5609;-59
2023/10/08 03:23:33;;;;;;;;;;;;;;;20.09;44.82;97823.50;4220036;28;5612;-59
2023/10/08 03:25:41;;;;;;;;;;;;;;;20.03;44.71;97830.56;4197328;28;5631;-60
2023/10/08 03:27:44;;;;;;;;;;;;;;;19.99;44.79;97835.59;4201391;28;5699;-60
2023/10/08 03:29:48;;;;;;;;;;;;;;;19.97;44.91;97826.13;4200444;28;5714;-60
2023/10/08 03:31:50;;;;;;;;;;;;;;;19.96;44.69;97835.22;4211131;28;5629;-60
2023/10/08 03:33:53;;;;;;;;;;;;;;;19.96;44.71;97835.22;4201539;28;5703;-60
2023/10/08 03:36:00;;;;;;;;;;;;;;;19.96;44.67;97838.72;4205690;28;5707;-60
2023/10/08 03:38:19;;;;;;;;;;;;;;;19.95;44.82;97836.28;4217234;28;5638;-60
2023/10/08 03:40:32;;;;;;;;;;;;;;;19.94;44.57;97840.00;4202369;28;5807;-59
2023/10/08 03:42:40;;;;;;;;;;;;;;;19.95;44.70;97845.16;4207355;28;5628;-60
2023/10/08 03:44:42;;;;;;;;;;;;;;;19.94;44.44;97827.41;4200672;28;5703;-61
2023/10/08 03:46:47;;;;;;;;;;;;;;;19.95;44.72;97841.66;4195988;28;5767;-59
2023/10/08 03:48:51;;;;;;;;;;;;;;;19.95;44.49;97831.72;4187137;28;5653;-60
2023/10/08 03:51:06;;;;;;;;;;;;;;;19.95;44.56;97833.59;4192538;28;5628;-61
2023/10/08 03:53:11;;;;;;;;;;;;;;;19.96;44.77;97835.22;4205974;28;5633;-60
2023/10/08 03:55:21;;;;;;;;;;;;;;;19.95;44.78;97831.72;4206493;28;5861;-60
2023/10/08 03:57:40;;;;;;;;;;;;;;;19.95;44.86;97845.16;4210623;28;5632;-60
2023/10/08 03:59:48;;;;;;;;;;;;;;;19.95;44.52;97839.78;4209754;28;5808;-61
2023/10/08 04:01:54;;;;;;;;;;;;;;;19.94;44.63;97843.50;4194082;28;5759;-60
2023/10/08 04:04:00;;;;;;;;;;;;;;;19.94;44.96;97845.38;4200569;28;5851;-60
2023/10/08 04:06:14;;;;;;;;;;;;;;;19.92;44.96;97844.75;4204564;28;6388;-60
2023/10/08 04:08:24;;;;;;;;;;;;;;;19.92;45.01;97845.56;4206091;28;6150;-61
2023/10/08 04:11:07;;;;;;;;;;;;;;;19.92;44.74;97840.22;4194460;28;5631;-60
2023/10/08 04:13:26;;;;;;;;;;;;;;;19.88;44.83;97840.91;4184481;28;5729;-60
2023/10/08 04:15:29;;;;;;;;;;;;;;;19.82;44.69;97839.13;4193951;28;5705;-60
2023/10/08 04:17:36;;;;;;;;;;;;;;;19.76;44.96;97830.13;4208241;28;5624;-60
2023/10/08 04:19:47;;;;;;;;;;;;;;;19.75;44.97;97836.53;4185787;28;5885;-60
2023/10/08 04:21:53;;;;;;;;;;;;;;;19.76;44.87;97841.66;4202088;28;5686;-59
2023/10/08 04:23:58;;;;;;;;;;;;;;;19.78;45.00;97836.06;4200612;28;5703;-60
2023/10/08 04:26:00;;;;;;;;;;;;;;;19.81;44.92;97840.97;4189907;28;5745;-59
2023/10/08 04:28:03;;;;;;;;;;;;;;;19.78;45.25;97831.53;4207078;28;5740;-59
2023/10/08 04:30:10;;;;;;;;;;;;;;;19.76;44.91;97830.94;4201882;28;5694;-59
2023/10/08 04:32:21;;;;;;;;;;;;;;;19.78;45.00;97836.06;4205680;28;5620;-59
2023/10/08 04:34:23;;;;;;;;;;;;;;;19.80;45.14;97831.28;4201305;28;5520;-59
2023/10/08 04:36:26;;;;;;;;;;;;;;;19.81;45.00;97837.47;4202065;28;7672;-59
2023/10/08 04:38:28;;;;;;;;;;;;;;;19.82;44.97;97833.75;4202039;28;5743;-59
2023/10/08 04:40:41;;;;;;;;;;;;;;;19.82;45.20;97829.22;4200216;28;5690;-59
2023/10/08 04:42:45;;;;;;;;;;;;;;;19.83;45.10;97835.41;4210136;28;5700;-60
2023/10/08 04:44:47;;;;;;;;;;;;;;;19.80;45.26;97823.25;4218774;28;5779;-60
2023/10/08 04:46:52;;;;;;;;;;;;;;;19.81;45.24;97826.75;4215385;28;5698;-59
2023/10/08 04:48:55;;;;;;;;;;;;;;;19.82;45.18;97833.75;4198198;28;5728;-60
2023/10/08 04:51:02;;;;;;;;;;;;;;;19.83;45.23;97835.41;4198408;28;5786;-59
2023/10/08 04:53:08;;;;;;;;;;;;;;;19.83;45.11;97835.41;4198818;28;5749;-59
2023/10/08 04:55:19;;;;;;;;;;;;;;;19.82;45.25;97828.38;4196946;28;5620;-60
2023/10/08 04:57:25;;;;;;;;;;;;;;;19.82;45.19;97834.59;4191008;28;5754;-59
2023/10/08 04:59:33;;;;;;;;;;;;;;;19.82;45.26;97831.06;4191662;28;5742;-60
2023/10/08 05:01:40;;;;;;;;;;;;;;;19.78;45.27;97831.53;4199543;28;5631;-59
2023/10/08 05:03:55;;;;;;;;;;;;;;;19.77;45.45;97829.06;4206256;28;5632;-59
2023/10/08 05:06:08;;;;;;;;;;;;;;;19.78;45.38;97834.22;4201126;28;5628;-59
2023/10/08 05:08:28;;;;;;;;;;;;;;;19.81;45.49;97821.38;4201447;28;5097;-59
2023/10/08 05:10:45;;;;;;;;;;;;;;;19.80;45.38;97825.09;4201448;28;6393;-59
2023/10/08 05:13:01;;;;;;;;;;;;;;;19.78;45.26;97831.53;4202292;28;5838;-59
2023/10/08 05:15:32;;;;;;;;;;;;;;;19.79;45.41;97824.28;4212979;28;5609;-59
2023/10/08 05:17:56;;;;;;;;;;;;;;;19.78;45.87;97825.34;4191630;28;5638;-58
2023/10/08 05:20:19;;;;;;;;;;;;;;;19.78;45.71;97828.84;4202750;28;5616;-59
2023/10/08 05:22:43;;;;;;;;;;;;;;;19.77;45.47;97831.75;4211717;28;6299;-59
2023/10/08 05:25:07;;;;;;;;;;;;;;;19.76;45.80;97830.13;4202657;28;5624;-59
2023/10/08 05:30:11;;;;;;;;;;;;;;;19.75;45.92;97823.94;4201069;28;5727;-59
2023/10/08 05:32:38;;;;;;;;;;;;;;;19.76;45.71;97830.13;4204902;28;5710;-59
2023/10/08 05:34:56;;;;;;;;;;;;;;;19.75;45.65;97831.16;4216494;28;5692;-59
2023/10/08 05:39:40;;;;;;;;;;;;;;;19.71;46.10;97833.50;4196083;28;5864;-59
2023/10/08 05:41:51;;;;;;;;;;;;;;;19.70;45.99;97831.81;4200800;28;5743;-59
2023/10/08 05:46:39;;;;;;;;;;;;;;;19.70;46.15;97831.00;4203245;28;5721;-59
2023/10/08 05:48:46;;;;;;;;;;;;;;;19.71;46.00;97844.22;4200967;28;5707;-60
2023/10/08 05:51:12;;;;;;;;;;;;;;;19.71;46.26;97841.53;4201741;28;5604;-59
2023/10/08 05:53:43;;;;;;;;;;;;;;;19.72;46.36;97853.91;4210204;28;5803;-60
2023/10/08 05:55:47;;;;;;;;;;;;;;;19.72;46.22;97842.38;4183933;28;5646;-59
2023/10/08 05:58:02;;;;;;;;;;;;;;;19.73;46.61;97850.19;4184721;28;5650;-59
2023/10/08 06:00:46;;;;;;;;;;;;;;;19.72;46.39;97848.53;4198180;28;5722;-60
2023/10/08 06:03:09;;;;;;;;;;;;;;;19.72;46.65;97856.59;4185218;28;5639;-60
2023/10/08 06:05:20;;;;;;;;;;;;;;;19.72;46.53;97853.91;4213039;28;5702;-59
2023/10/08 06:07:33;;;;;;;;;;;;;;;19.72;46.94;97859.28;4206561;28;5627;-60
2023/10/08 06:09:37;;;;;;;;;;;;;;;19.72;46.68;97851.22;4200073;28;5752;-59
2023/10/08 06:11:44;;;;;;;;;;;;;;;19.73;46.82;97862.78;4199764;28;5633;-59
2023/10/08 06:13:55;;;;;;;;;;;;;;;19.75;47.08;97868.72;4192979;28;5694;-59
2023/10/08 06:16:08;;;;;;;;;;;;;;;19.74;47.12;97873.28;4207544;28;5702;-59
2023/10/08 06:18:14;;;;;;;;;;;;;;;19.72;47.28;97867.31;4200349;28;5589;-60
2023/10/08 06:20:16;;;;;;;;;;;;;;;19.68;47.40;97866.13;4195956;28;5636;-60
2023/10/08 06:22:25;;;;;;;;;;;;;;;19.69;47.40;97875.81;4195835;28;5824;-60
2023/10/08 06:24:28;;;;;;;;;;;;;;;19.73;47.57;97873.50;4206452;28;5684;-60
2023/10/08 06:26:34;;;;;;;;;;;;;;;19.75;47.57;97872.22;4194835;28;5658;-59
2023/10/08 06:28:38;;;;;;;;;;;;;;;19.76;47.36;97883.78;4185016;28;5816;-59
2023/10/08 06:30:42;;;;;;;;;;;;;;;19.77;47.49;97880.88;4202317;28;5687;-59
2023/10/08 06:32:50;;;;;;;;;;;;;;;19.78;47.58;97885.19;4192924;28;5741;-59
2023/10/08 06:34:56;;;;;;;;;;;;;;;19.77;47.59;97888.91;4208493;28;5621;-59
2023/10/08 06:37:01;;;;;;;;;;;;;;;19.78;47.56;97882.50;4210583;28;5636;-59
2023/10/08 06:39:05;;;;;;;;;;;;;;;19.81;47.71;97888.47;4205912;28;5905;-59
2023/10/08 06:41:17;;;;;;;;;;;;;;;19.82;47.92;97884.72;4208667;28;5807;-60
2023/10/08 06:43:43;;;;;;;;;;;;;;;19.84;47.75;97890.72;4207190;28;5785;-60
2023/10/08 06:45:46;;;;;;;;;;;;;;;19.84;47.80;97893.41;4183510;28;5714;-59
2023/10/08 06:47:49;;;;;;;;;;;;;;;19.86;47.75;97894.81;4191242;28;5837;-60
2023/10/08 06:49:52;;;;;;;;;;;;;;;19.86;47.99;97900.16;4193073;28;6422;-59
2023/10/08 06:51:57;;;;;;;;;;;;;;;19.85;47.85;97897.72;4197763;28;6404;-59
2023/10/08 06:54:02;;;;;;;;;;;;;;;19.87;48.09;97901.00;4200298;28;7797;-59
2023/10/08 06:56:06;;;;;;;;;;;;;;;19.86;48.27;97894.81;4198141;28;5686;-60
2023/10/08 06:58:11;;;;;;;;;;;;;;;19.86;48.39;97889.44;4200011;28;5691;-59
2023/10/08 07:00:37;;;;;;;;;;;;;;;19.89;48.48;97898.91;4200218;28;5702;-60
2023/10/08 07:02:39;;;;;;;;;;;;;;;19.90;48.66;97897.84;4207302;28;5730;-59
2023/10/08 07:04:43;;;;;;;;;;;;;;;19.90;48.78;97903.22;4195767;28;5640;-59
2023/10/08 07:06:46;;;;;;;;;;;;;;;19.91;48.91;97904.84;4192682;28;5722;-59
2023/10/08 07:08:54;;;;;;;;;;;;;;;19.91;48.78;97908.34;4208769;28;5617;-59
2023/10/08 07:11:01;;;;;;;;;;;;;;;19.91;48.77;97902.16;4204753;28;5844;-60
2023/10/08 07:13:07;;;;;;;;;;;;;;;19.94;49.16;97912.47;4199520;28;5926;-59
2023/10/08 07:15:12;;;;;;;;;;;;;;;19.94;49.03;97918.66;4203362;28;5609;-60
2023/10/08 07:17:19;;;;;;;;;;;;;;;19.95;49.19;97908.75;4194999;28;5635;-60
2023/10/08 07:19:32;;;;;;;;;;;;;;;19.96;49.33;97910.38;4192171;28;5658;-60
2023/10/08 07:21:44;;;;;;;;;;;;;;;19.98;49.43;97913.66;4208667;28;5729;-61
2023/10/08 07:24:00;;;;;;;;;;;;;;;19.98;49.57;97919.84;4199310;28;5823;-60
2023/10/08 07:26:11;;;;;;;;;;;;;;;20.00;49.67;97922.28;4198592;28;5726;-60
2023/10/08 07:28:14;;;;;;;;;;;;;;;20.00;49.67;97923.09;4207134;28;5661;-61
2023/10/08 07:30:26;;;;;;;;;;;;;;;20.01;49.72;97930.09;4195963;28;5640;-61
2023/10/08 07:32:30;;;;;;;;;;;;;;;20.03;49.98;97927.19;4187496;28;5650;-60
2023/10/08 07:34:34;;;;;;;;;;;;;;;20.02;50.15;97923.69;4195920;28;5841;-60
2023/10/08 07:36:36;;;;;;;;;;;;;;;20.04;50.10;97928.84;4199933;28;5826;-60
2023/10/08 07:38:42;;;;;;;;;;;;;;;20.04;49.87;97945.75;4195326;28;5699;-60
2023/10/08 07:40:45;;;;;;;;;;;;;;;20.06;50.32;97937.50;4201982;28;7411;-60
2023/10/08 07:42:51;;;;;;;;;;;;;;;20.09;50.31;97946.97;4192203;28;5871;-60
2023/10/08 07:44:54;;;;;;;;;;;;;;;20.08;50.48;97940.78;4194474;28;5811;-60
2023/10/08 07:46:59;;;;;;;;;;;;;;;20.09;50.43;97942.41;4200497;28;5698;-59
2023/10/08 07:49:01;;;;;;;;;;;;;;;20.11;50.35;97945.69;4204791;28;5628;-60
2023/10/08 07:51:04;;;;;;;;;;;;;;;20.11;50.57;97948.38;4198831;28;5857;-60
2023/10/08 07:53:07;;;;;;;;;;;;;;;20.12;50.54;97957.25;4199605;28;5624;-60
2023/10/08 07:55:10;;;;;;;;;;;;;;;20.13;50.68;97954.31;4200724;28;5617;-60
2023/10/08 07:57:17;;;;;;;;;;;;;;;20.14;50.40;97950.59;4200297;28;6311;-59
2023/10/08 07:59:22;;;;;;;;;;;;;;;20.15;50.80;97948.72;4198227;28;6384;-59
2023/10/08 08:01:25;;;;;;;;;;;;;;;20.16;50.70;97951.22;4214860;28;5688;-59
2023/10/08 08:03:28;;;;;;;;;;;;;;;20.18;50.35;97951.81;4194840;28;5702;-60
2023/10/08 08:05:34;;;;;;;;;;;;;;;20.19;50.64;97950.75;4215550;28;5736;-59
2023/10/08 08:07:38;;;;;;;;;;;;;;;20.20;50.46;97949.72;4196578;28;5710;-60
2023/10/08 08:09:48;;;;;;;;;;;;;;;20.21;50.36;97948.66;4189037;28;5821;-60
2023/10/08 08:11:53;;;;;;;;;;;;;;;20.23;50.40;97954.63;4193081;28;5628;-60
2023/10/08 08:13:56;;;;;;;;;;;;;;;20.24;50.78;97961.63;4202565;28;6015;-60
2023/10/08 08:16:09;;;;;;;;;;;;;;;20.25;50.78;97952.53;4203168;28;5738;-60
2023/10/08 08:18:22;;;;;;;;;;;;;;;20.26;50.49;97958.72;4200377;28;5638;-60
2023/10/08 08:20:38;;;;;;;;;;;;;;;20.27;50.54;97961.19;4206675;28;5747;-60
2023/10/08 08:22:41;;;;;;;;;;;;;;;20.28;50.35;97959.31;4200233;28;5790;-60
2023/10/08 08:24:46;;;;;;;;;;;;;;;20.29;50.63;97960.97;4205966;28;6066;-60
2023/10/08 08:27:01;;;;;;;;;;;;;;;20.29;50.50;97961.78;4188502;28;7749;-60
2023/10/08 08:29:04;;;;;;;;;;;;;;;20.31;50.29;97959.69;4185325;28;5936;-60
2023/10/08 08:31:13;;;;;;;;;;;;;;;20.30;50.48;97960.72;4193725;28;5856;-60
2023/10/08 08:33:22;;;;;;;;;;;;;;;20.33;50.33;97965.63;4191801;28;5733;-60
2023/10/08 08:35:26;;;;;;;;;;;;;;;20.34;50.19;97967.28;4200373;28;5620;-60
2023/10/08 08:37:30;;;;;;;;;;;;;;;20.34;50.49;97974.50;4199350;28;5724;-60
2023/10/08 08:39:35;;;;;;;;;;;;;;;20.34;50.51;97969.97;4198977;28;5751;-60
2023/10/08 08:41:38;;;;;;;;;;;;;;;20.37;50.48;97971.38;4193591;28;6892;-60
2023/10/08 08:43:44;;;;;;;;;;;;;;;20.38;50.35;97966.81;4200268;28;5782;-60
2023/10/08 08:45:49;;;;;;;;;;;;;;;20.39;50.34;97965.78;4204705;28;5740;-60
2023/10/08 08:47:55;;;;;;;;;;;;;;;20.40;50.31;97964.75;4197308;28;5643;-60
2023/10/08 08:50:08;;;;;;;;;;;;;;;20.41;50.03;97969.06;4198267;28;5726;-60
2023/10/08 08:52:12;;;;;;;;;;;;;;;20.42;50.25;97962.66;4178524;28;5653;-59
2023/10/08 08:54:16;;;;;;;;;;;;;;;20.44;50.30;97963.25;4195932;28;5782;-60
2023/10/08 08:56:19;;;;;;;;;;;;;;;20.45;50.41;97956.84;4204670;28;5613;-60
2023/10/08 08:58:25;;;;;;;;;;;;;;;20.45;50.31;97965.72;4197608;28;5624;-60
2023/10/08 09:00:30;;;;;;;;;;;;;;;20.45;50.34;97956.84;4189676;28;5631;-60
2023/10/08 09:02:35;;;;;;;;;;;;;;;20.45;50.25;97964.91;4187456;28;5706;-60
2023/10/08 09:04:39;;;;;;;;;;;;;;;20.45;50.54;97960.34;4192616;28;5726;-60
2023/10/08 09:06:42;;;;;;;;;;;;;;;20.46;50.47;97953.09;4192746;28;5624;-60
2023/10/08 09:08:49;;;;;;;;;;;;;;;20.46;50.42;97953.09;4190128;28;5726;-60
2023/10/08 09:10:51;;;;;;;;;;;;;;;20.47;50.46;97962.81;4196971;28;5620;-60
2023/10/08 09:12:57;;;;;;;;;;;;;;;20.48;50.85;97959.88;4191564;28;5723;-60
2023/10/08 09:15:04;;;;;;;;;;;;;;;20.49;50.59;97963.38;4196423;28;5620;-61
2023/10/08 09:17:07;;;;;;;;;;;;;;;20.50;50.76;97963.19;4195974;28;5762;-62
2023/10/08 09:19:15;;;;;;;;;;;;;;;20.51;50.93;97955.94;4190858;28;5846;-61
2023/10/08 09:21:22;;;;;;;;;;;;;;;20.53;50.95;97964.59;4199287;28;5613;-63
2023/10/08 09:23:25;;;;;;;;;;;;;;;20.54;51.25;97960.84;4195607;28;5683;-63
2023/10/08 09:25:32;;;;;;;;;;;;;;;20.55;51.30;97967.88;4192005;28;5645;-64
2023/10/08 09:27:37;;;;;;;;;;;;;;;20.57;51.14;97961.22;4192198;28;5813;-63
2023/10/08 09:29:41;;;;;;;;;;;;;;;20.58;51.31;97959.34;4179929;28;5745;-63
2023/10/08 09:31:55;;;;;;;;;;;;;;;20.59;51.50;97961.78;4199313;28;5793;-62
2023/10/08 09:33:58;;;;;;;;;;;;;;;20.61;51.32;97953.50;4195132;28;5879;-62
2023/10/08 09:36:05;;;;;;;;;;;;;;;20.62;51.68;97952.47;4196635;28;6548;-62
2023/10/08 09:38:10;;;;;;;;;;;;;;;20.64;51.60;97947.69;4187968;28;5921;-62
2023/10/08 09:40:20;;;;;;;;;;;;;;;20.64;51.68;97945.00;4187971;28;5829;-63
2023/10/08 09:42:24;;;;;;;;;;;;;;;20.67;52.06;97954.47;4188527;28;5652;-60
2023/10/08 09:44:27;;;;;;;;;;;;;;;20.67;52.00;97949.91;4187123;28;5737;-69
2023/10/08 09:46:34;;;;;;;;;;;;;;;20.69;52.30;97947.00;4192138;28;6302;-66
2023/10/08 09:48:40;;;;;;;;;;;;;;;20.67;52.06;97946.41;4189537;28;5691;-61
2023/10/08 09:50:44;;;;;;;;;;;;;;;20.68;52.18;97948.88;4186741;28;5639;-61
2023/10/08 09:52:57;;;;;;;;;;;;;;;20.68;52.42;97951.53;4184119;28;5765;-62
2023/10/08 09:55:10;;;;;;;;;;;;;;;20.69;52.34;97947.00;4188020;28;5746;-62
2023/10/08 09:57:13;;;;;;;;;;;;;;;20.72;52.58;97946.53;4189733;28;5612;-62
2023/10/08 09:59:19;;;;;;;;;;;;;;;20.73;52.52;97949.00;4199092;28;5642;-62
2023/10/08 10:01:22;;;;;;;;;;;;;;;20.74;52.69;97950.66;4187625;28;5658;-61
2023/10/08 10:03:26;;;;;;;;;;;;;;;20.75;52.61;97951.47;4167941;28;5755;-62
2023/10/08 10:05:31;;;;;;;;;;;;;;;20.76;52.67;97943.16;4188724;28;5817;-62
2023/10/08 10:07:36;;;;;;;;;;;;;;;20.79;52.56;97940.00;4181991;28;5818;-62
2023/10/08 10:09:39;;;;;;;;;;;;;;;20.81;52.81;97931.72;4177960;28;5745;-63
2023/10/08 10:11:49;;;;;;;;;;;;;;;20.82;52.95;97949.47;4192438;28;5636;-64
2023/10/08 10:13:59;;;;;;;;;;;;;;;20.83;52.81;97949.25;4182324;28;5670;-65
2023/10/08 10:16:02;;;;;;;;;;;;;;;20.84;53.18;97947.41;4177773;28;5768;-69
2023/10/08 10:18:14;;;;;;;;;;;;;;;20.85;53.14;97944.47;4187073;28;5713;-66
2023/10/08 10:20:18;;;;;;;;;;;;;;;20.85;53.22;97941.78;4186106;28;5647;-65
2023/10/08 10:22:32;;;;;;;;;;;;;;;20.87;52.87;97950.44;4193720;28;5800;-65
2023/10/08 10:24:37;;;;;;;;;;;;;;;20.88;53.06;97943.19;4195792;28;5628;-64
2023/10/08 10:26:44;;;;;;;;;;;;;;;20.89;52.88;97948.31;4187785;28;5729;-66
2023/10/08 10:29:21;;;;;;;;;;;;;;;20.87;52.85;97945.06;4182034;28;5784;-64
2023/10/08 10:31:24;;;;;;;;;;;;;;;20.87;53.16;97939.69;4190973;28;5748;-65
2023/10/08 10:33:34;;;;;;;;;;;;;;;20.90;53.34;97943.78;4192097;28;5627;-68
2023/10/08 10:35:40;;;;;;;;;;;;;;;20.91;53.19;97948.09;4183740;28;5671;-72
2023/10/08 10:37:43;;;;;;;;;;;;;;;20.93;53.00;97943.31;4206447;28;5716;-74
2023/10/08 10:39:59;;;;;;;;;;;;;;;20.93;53.06;97946.81;4206637;28;5105;-73
2023/10/08 10:42:05;;;;;;;;;;;;;;;20.93;53.08;97936.06;4188581;28;6333;-72
2023/10/08 10:44:09;;;;;;;;;;;;;;;20.94;53.06;97940.38;4187985;28;6530;-66
2023/10/08 10:48:34;;;;;;;;;;;;;;;20.97;52.98;97943.69;4186954;28;5753;-71
2023/10/08 10:50:47;;;;;;;;;;;;;;;20.98;52.97;97942.63;4188685;28;5706;-71
2023/10/08 10:52:52;;;;;;;;;;;;;;;20.97;53.23;97944.50;4182605;28;5864;-73
2023/10/08 10:55:00;;;;;;;;;;;;;;;20.96;52.97;97942.03;4199524;28;5855;-66
2023/10/08 10:57:05;;;;;;;;;;;;;;;20.98;53.42;97942.63;4200227;28;5790;-68
2023/10/08 10:59:18;;;;;;;;;;;;;;;20.99;53.12;97938.88;4185174;28;5713;-68
2023/10/08 11:01:24;;;;;;;;;;;;;;;21.00;53.12;97938.66;4190755;28;5628;-67
2023/10/08 11:03:28;;;;;;;;;;;;;;;21.02;53.19;97933.84;4189700;28;6356;-71
2023/10/08 11:05:33;;;;;;;;;;;;;;;21.02;53.50;97928.47;4200067;28;5767;-73
2023/10/08 11:07:40;;;;;;;;;;;;;;;21.01;53.57;97926.03;4195175;28;5744;-66
2023/10/08 11:09:44;;;;;;;;;;;;;;;21.01;53.64;97924.16;4181630;28;5677;-67
2023/10/08 11:11:54;;;;;;;;;;;;;;;21.05;53.37;97919.13;4187906;28;5654;-69
2023/10/08 11:14:00;;;;;;;;;;;;;;;21.05;53.18;97917.25;4203721;28;5804;-67
2023/10/08 11:16:14;;;;;;;;;;;;;;;21.07;53.40;97915.16;4193172;28;5624;-68
2023/10/08 11:18:18;;;;;;;;;;;;;;;21.08;53.52;97918.69;4187614;28;5840;-72
2023/10/08 11:20:25;;;;;;;;;;;;;;;21.09;53.23;97925.69;4190804;28;5723;-69
2023/10/08 11:22:44;;;;;;;;;;;;;;;21.10;53.42;97919.25;4195145;28;7684;-71